Felts Field
KSFF : now visible

Airfield :











YOU CAN JOIN US ON...

 
LOGIN :

Register | Disclaimer

   EN    FR    IT 

 









Legend :    VFR   Marginal VFR   IFR   Intensive IFR   Very Intensive IFR
Visi :
Ceiling :
>= 8 km
>= 3000ft
5 to 8 km
1000 to 3000 ft
1500m to 5 km
500 to 1000 ft
800 to 1500m
200 to 500 ft
< 800m
< 200 ft
Symbols :   Thunderstorms  Fog  Heavy snow  Heavy precipitations  Wind > 20 kt






- Airport Elevation : 1953 ft


KSFF - Felts Field

CURRENT METAR :
  • 231353Z 04003KT 10SM FEW075 OVC090 01/M01 A2995 RMK AO2 SLP152 T00111011

EXPIRED METARs :
  • 231253Z AUTO 04003KT 10SM OVC100 02/M02 A2996 RMK AO2 SLP154 T00171017
  • 231153Z AUTO 01004KT 10SM BKN100 01/M02 A2995 RMK AO2 SLP152 T00111017 10033 20006 58017

TAF KSFF
Valid from the 23 at 12:00 until the 24 at 12:00 UTC


231123Z 2312/2412 VRB03KT P6SM SCT080 OVC150
FM231500 VRB03KT P6SM VCSH SCT040 OVC070 WS020/23030KT
FM231800 21013G20KT P6SM -RA BKN030 OVC050
FM232100 24019G26KT P6SM -SHRA SCT030 BKN050
FM240100 23013G21KT P6SM SCT050 BKN100
FM240600 23008KT P6SM BKN100



MET'MAP, your aeronautical weather chart ! - Copyright ORBIFLY December 2007 - Disclaimer

ORBIFLY MET'MAP TEAM :

Programming & Development : Alexandra Zaïnal
Concept & original design : Baudouin d'Aumeries
Assistance for programming : Marc-Olivier Méhu
Technical & hardware support : Manuel Goepfert

Contact : metmap@orbifly.com




SOURCES & CREDITS :

   NOAA       Earth
Advisory